ラロトンガ の空港の天気 - METARとTAF

ラロトンガ国際空港 ( NCRG / RAR ) - クック諸島 アバルア (ラロトンガ島)
飛行場実況気象(Metar)
観測時間08/25 09:00 CKT (08/25 19:00 UTC)
風向・風速南西 2m/s
視程10km以上
天気現象
少しの雲 雲底高度 980m
全天の4割程度の雲 雲底高度 1190m
全天の8割程度の雲 雲底高度 1680m
気温24℃
湿度83%
気圧1015hPa
METARNCRG 251900Z AUTO 23004KT 170V290 9999 FEW032/// SCT039/// BKN055/// 24/21 Q1015
過去の天気等 Google飛行場航空写真 Wunderground天気予報

過去48時間のMETAR

飛行場予報(TAF)
発表時間: 8/25 07:07 CKT (8/25 17:07 UTC)
予報対象時間: 25日8時 CKT ~ 26日8時 CKT
風向・風速西 4m/s
視程10km以上
全天の4割程度の雲 雲底高度 490m
全天の4割程度の雲 雲底高度 3050m
25日8時 CKT ~ 25日14時 CKT に一時的に
視程5000m
天気現象しゅう雨
全天の8割程度の雲 雲底高度 460m
25日10時 CKT から
風向・風速南南西 6m/s
視程10km以上
全天の4割程度の雲 雲底高度 550m
全天の4割程度の雲 雲底高度 1220m
TAF NCRG 251707Z 2518/2618 28008KT 9999 SCT016 SCT100
TEMPO 2518/2524 5000 SHRA BKN015
FM252000 20011KT 9999 SCT018 SCT040